sensor_id;sensor_type;location;lat;lon;timestamp;temperature;humidity
55642;DHT22;41509;53.108;6.100;2023-04-06T00:01:48;3.90;89.40
55642;DHT22;41509;53.108;6.100;2023-04-06T00:04:27;3.80;89.40
55642;DHT22;41509;53.108;6.100;2023-04-06T00:06:52;3.80;89.90
55642;DHT22;41509;53.108;6.100;2023-04-06T00:09:18;3.80;90.10
55642;DHT22;41509;53.108;6.100;2023-04-06T00:11:43;3.80;90.10
55642;DHT22;41509;53.108;6.100;2023-04-06T00:14:09;3.70;90.30
55642;DHT22;41509;53.108;6.100;2023-04-06T00:16:35;3.70;90.40
55642;DHT22;41509;53.108;6.100;2023-04-06T00:19:01;3.70;90.70
55642;DHT22;41509;53.108;6.100;2023-04-06T00:21:26;3.70;90.80
55642;DHT22;41509;53.108;6.100;2023-04-06T00:23:52;3.70;91.10
55642;DHT22;41509;53.108;6.100;2023-04-06T00:26:18;3.60;91.10
55642;DHT22;41509;53.108;6.100;2023-04-06T00:28:46;3.60;91.30
55642;DHT22;41509;53.108;6.100;2023-04-06T00:31:12;3.60;91.30
55642;DHT22;41509;53.108;6.100;2023-04-06T00:33:37;3.60;91.50
55642;DHT22;41509;53.108;6.100;2023-04-06T00:36:03;3.60;91.70
55642;DHT22;41509;53.108;6.100;2023-04-06T00:38:28;3.50;91.90
55642;DHT22;41509;53.108;6.100;2023-04-06T00:40:54;3.50;92.10
55642;DHT22;41509;53.108;6.100;2023-04-06T00:43:20;3.50;92.00
55642;DHT22;41509;53.108;6.100;2023-04-06T00:45:45;3.50;92.10
55642;DHT22;41509;53.108;6.100;2023-04-06T00:48:11;3.50;92.30
55642;DHT22;41509;53.108;6.100;2023-04-06T00:50:37;3.40;92.40
55642;DHT22;41509;53.108;6.100;2023-04-06T00:53:02;3.40;92.70
55642;DHT22;41509;53.108;6.100;2023-04-06T00:55:28;3.40;92.70
55642;DHT22;41509;53.108;6.100;2023-04-06T00:57:55;3.40;93.10
55642;DHT22;41509;53.108;6.100;2023-04-06T01:00:22;3.40;93.20
55642;DHT22;41509;53.108;6.100;2023-04-06T01:02:47;3.40;93.30
55642;DHT22;41509;53.108;6.100;2023-04-06T01:05:13;3.30;93.40
55642;DHT22;41509;53.108;6.100;2023-04-06T01:07:39;3.30;93.90
55642;DHT22;41509;53.108;6.100;2023-04-06T01:10:05;3.30;94.10
55642;DHT22;41509;53.108;6.100;2023-04-06T01:12:31;3.20;94.00
55642;DHT22;41509;53.108;6.100;2023-04-06T01:14:56;3.30;94.10
55642;DHT22;41509;53.108;6.100;2023-04-06T01:17:22;3.30;94.60
55642;DHT22;41509;53.108;6.100;2023-04-06T01:19:50;3.30;94.70
55642;DHT22;41509;53.108;6.100;2023-04-06T01:22:19;3.20;95.00
55642;DHT22;41509;53.108;6.100;2023-04-06T01:24:44;3.20;95.10
55642;DHT22;41509;53.108;6.100;2023-04-06T01:27:10;3.20;95.30
55642;DHT22;41509;53.108;6.100;2023-04-06T01:29:36;3.20;95.40
55642;DHT22;41509;53.108;6.100;2023-04-06T01:32:02;3.10;95.70
55642;DHT22;41509;53.108;6.100;2023-04-06T01:34:27;3.10;95.70
55642;DHT22;41509;53.108;6.100;2023-04-06T01:36:53;3.10;96.00
55642;DHT22;41509;53.108;6.100;2023-04-06T01:39:22;3.10;96.00
55642;DHT22;41509;53.108;6.100;2023-04-06T01:41:48;3.10;96.30
55642;DHT22;41509;53.108;6.100;2023-04-06T01:44:16;3.10;96.30
55642;DHT22;41509;53.108;6.100;2023-04-06T01:46:43;3.10;96.50
55642;DHT22;41509;53.108;6.100;2023-04-06T01:49:09;3.00;96.70
55642;DHT22;41509;53.108;6.100;2023-04-06T01:51:34;3.00;97.00
55642;DHT22;41509;53.108;6.100;2023-04-06T01:54:00;2.90;97.20
55642;DHT22;41509;53.108;6.100;2023-04-06T01:56:26;2.90;97.50
55642;DHT22;41509;53.108;6.100;2023-04-06T01:58:51;2.90;97.60
55642;DHT22;41509;53.108;6.100;2023-04-06T02:01:17;2.90;97.60
55642;DHT22;41509;53.108;6.100;2023-04-06T02:03:43;2.80;97.60
55642;DHT22;41509;53.108;6.100;2023-04-06T02:06:08;2.80;97.70
55642;DHT22;41509;53.108;6.100;2023-04-06T02:08:34;2.80;97.90
55642;DHT22;41509;53.108;6.100;2023-04-06T02:10:59;2.80;98.10
55642;DHT22;41509;53.108;6.100;2023-04-06T02:13:25;2.80;98.00
55642;DHT22;41509;53.108;6.100;2023-04-06T02:15:51;2.80;98.20
55642;DHT22;41509;53.108;6.100;2023-04-06T02:18:16;2.80;98.20
55642;DHT22;41509;53.108;6.100;2023-04-06T02:20:43;2.70;98.50
55642;DHT22;41509;53.108;6.100;2023-04-06T02:23:09;2.70;98.50
55642;DHT22;41509;53.108;6.100;2023-04-06T02:25:37;2.70;98.80
55642;DHT22;41509;53.108;6.100;2023-04-06T02:28:03;2.70;98.70
55642;DHT22;41509;53.108;6.100;2023-04-06T02:30:29;2.70;98.90
55642;DHT22;41509;53.108;6.100;2023-04-06T02:32:54;2.60;98.90
55642;DHT22;41509;53.108;6.100;2023-04-06T02:35:21;2.60;99.20
55642;DHT22;41509;53.108;6.100;2023-04-06T02:37:46;2.60;99.20
55642;DHT22;41509;53.108;6.100;2023-04-06T02:40:13;2.60;99.30
55642;DHT22;41509;53.108;6.100;2023-04-06T02:42:39;2.60;99.60
55642;DHT22;41509;53.108;6.100;2023-04-06T02:45:05;2.60;99.70
55642;DHT22;41509;53.108;6.100;2023-04-06T02:47:30;2.60;99.80
55642;DHT22;41509;53.108;6.100;2023-04-06T02:49:56;2.60;99.80
55642;DHT22;41509;53.108;6.100;2023-04-06T02:52:22;2.50;99.80
55642;DHT22;41509;53.108;6.100;2023-04-06T02:54:47;2.50;99.90
55642;DHT22;41509;53.108;6.100;2023-04-06T02:57:13;2.50;99.90
55642;DHT22;41509;53.108;6.100;2023-04-06T02:59:38;2.50;99.90
55642;DHT22;41509;53.108;6.100;2023-04-06T03:02:04;2.50;99.90
55642;DHT22;41509;53.108;6.100;2023-04-06T03:04:30;2.50;99.90
55642;DHT22;41509;53.108;6.100;2023-04-06T03:06:55;2.50;99.90
55642;DHT22;41509;53.108;6.100;2023-04-06T03:09:21;2.40;99.90
55642;DHT22;41509;53.108;6.100;2023-04-06T03:11:47;2.40;99.90
55642;DHT22;41509;53.108;6.100;2023-04-06T03:14:12;2.40;99.90
55642;DHT22;41509;53.108;6.100;2023-04-06T03:16:38;2.40;99.90
55642;DHT22;41509;53.108;6.100;2023-04-06T03:19:04;2.40;99.90
55642;DHT22;41509;53.108;6.100;2023-04-06T03:21:30;2.40;99.90
55642;DHT22;41509;53.108;6.100;2023-04-06T03:23:55;2.30;99.90
55642;DHT22;41509;53.108;6.100;2023-04-06T03:26:21;2.30;99.90
55642;DHT22;41509;53.108;6.100;2023-04-06T03:28:47;2.30;99.90
55642;DHT22;41509;53.108;6.100;2023-04-06T03:31:13;2.30;99.90
55642;DHT22;41509;53.108;6.100;2023-04-06T03:33:39;2.30;99.90
55642;DHT22;41509;53.108;6.100;2023-04-06T03:36:05;2.30;99.90
55642;DHT22;41509;53.108;6.100;2023-04-06T03:38:30;2.30;99.90
55642;DHT22;41509;53.108;6.100;2023-04-06T03:40:56;2.20;99.90
55642;DHT22;41509;53.108;6.100;2023-04-06T03:43:21;2.20;99.90
55642;DHT22;41509;53.108;6.100;2023-04-06T03:45:49;2.20;99.90
55642;DHT22;41509;53.108;6.100;2023-04-06T03:48:17;2.20;99.90
55642;DHT22;41509;53.108;6.100;2023-04-06T03:50:43;2.20;99.90
55642;DHT22;41509;53.108;6.100;2023-04-06T03:53:08;2.10;99.90
55642;DHT22;41509;53.108;6.100;2023-04-06T03:55:34;2.10;99.90
55642;DHT22;41509;53.108;6.100;2023-04-06T03:57:59;2.10;99.90
55642;DHT22;41509;53.108;6.100;2023-04-06T04:00:25;2.10;99.90
55642;DHT22;41509;53.108;6.100;2023-04-06T04:02:50;2.10;99.90
55642;DHT22;41509;53.108;6.100;2023-04-06T04:05:16;2.00;99.90
55642;DHT22;41509;53.108;6.100;2023-04-06T04:07:42;2.00;99.90
55642;DHT22;41509;53.108;6.100;2023-04-06T04:10:08;2.00;99.90
55642;DHT22;41509;53.108;6.100;2023-04-06T04:12:33;2.00;99.90
55642;DHT22;41509;53.108;6.100;2023-04-06T04:14:59;2.00;99.90
55642;DHT22;41509;53.108;6.100;2023-04-06T04:17:25;2.00;99.90
55642;DHT22;41509;53.108;6.100;2023-04-06T04:19:50;2.00;99.90
55642;DHT22;41509;53.108;6.100;2023-04-06T04:22:16;1.90;99.90
55642;DHT22;41509;53.108;6.100;2023-04-06T04:24:42;2.00;99.90
55642;DHT22;41509;53.108;6.100;2023-04-06T04:27:07;1.90;99.90
55642;DHT22;41509;53.108;6.100;2023-04-06T04:29:33;1.90;99.90
55642;DHT22;41509;53.108;6.100;2023-04-06T04:32:01;1.90;99.90
55642;DHT22;41509;53.108;6.100;2023-04-06T04:34:27;1.90;99.90
55642;DHT22;41509;53.108;6.100;2023-04-06T04:36:53;1.90;99.90
55642;DHT22;41509;53.108;6.100;2023-04-06T04:39:21;1.90;99.90
55642;DHT22;41509;53.108;6.100;2023-04-06T04:41:49;1.90;99.90
55642;DHT22;41509;53.108;6.100;2023-04-06T04:44:15;1.90;99.90
55642;DHT22;41509;53.108;6.100;2023-04-06T04:46:41;1.80;99.90
55642;DHT22;41509;53.108;6.100;2023-04-06T04:49:06;1.90;99.90
55642;DHT22;41509;53.108;6.100;2023-04-06T04:51:32;1.80;99.90
55642;DHT22;41509;53.108;6.100;2023-04-06T04:53:59;1.80;99.90
55642;DHT22;41509;53.108;6.100;2023-04-06T04:56:33;1.80;99.90
55642;DHT22;41509;53.108;6.100;2023-04-06T04:58:59;1.80;99.90
55642;DHT22;41509;53.108;6.100;2023-04-06T05:01:24;1.80;99.90
55642;DHT22;41509;53.108;6.100;2023-04-06T05:03:50;1.80;99.90
55642;DHT22;41509;53.108;6.100;2023-04-06T05:06:18;1.80;99.90
55642;DHT22;41509;53.108;6.100;2023-04-06T05:08:44;1.80;99.90
55642;DHT22;41509;53.108;6.100;2023-04-06T05:11:10;1.80;99.90
55642;DHT22;41509;53.108;6.100;2023-04-06T05:13:36;1.80;99.90
55642;DHT22;41509;53.108;6.100;2023-04-06T05:16:01;1.80;99.90
55642;DHT22;41509;53.108;6.100;2023-04-06T05:18:27;1.80;99.90
55642;DHT22;41509;53.108;6.100;2023-04-06T05:20:53;1.80;99.90
55642;DHT22;41509;53.108;6.100;2023-04-06T05:23:18;1.80;99.90
55642;DHT22;41509;53.108;6.100;2023-04-06T05:25:44;1.80;99.90
55642;DHT22;41509;53.108;6.100;2023-04-06T05:28:12;1.80;99.90
55642;DHT22;41509;53.108;6.100;2023-04-06T05:30:40;1.80;99.90
55642;DHT22;41509;53.108;6.100;2023-04-06T05:33:07;1.90;99.90
55642;DHT22;41509;53.108;6.100;2023-04-06T05:35:32;1.90;99.90
55642;DHT22;41509;53.108;6.100;2023-04-06T05:37:58;1.90;99.90
55642;DHT22;41509;53.108;6.100;2023-04-06T05:40:23;1.90;99.90
55642;DHT22;41509;53.108;6.100;2023-04-06T05:42:49;1.90;99.90
55642;DHT22;41509;53.108;6.100;2023-04-06T05:45:15;2.00;99.90
55642;DHT22;41509;53.108;6.100;2023-04-06T05:47:44;2.00;99.90
55642;DHT22;41509;53.108;6.100;2023-04-06T05:50:11;2.00;99.90
55642;DHT22;41509;53.108;6.100;2023-04-06T05:52:37;2.00;99.90
55642;DHT22;41509;53.108;6.100;2023-04-06T05:55:03;2.10;99.90
55642;DHT22;41509;53.108;6.100;2023-04-06T05:57:29;2.10;99.90
55642;DHT22;41509;53.108;6.100;2023-04-06T05:59:55;2.10;99.90
55642;DHT22;41509;53.108;6.100;2023-04-06T06:02:21;2.20;99.90
55642;DHT22;41509;53.108;6.100;2023-04-06T06:04:47;2.20;99.90
55642;DHT22;41509;53.108;6.100;2023-04-06T06:07:14;2.30;99.90
55642;DHT22;41509;53.108;6.100;2023-04-06T06:09:40;2.30;99.90
55642;DHT22;41509;53.108;6.100;2023-04-06T06:12:06;2.30;99.90
55642;DHT22;41509;53.108;6.100;2023-04-06T06:14:32;2.40;99.90
55642;DHT22;41509;53.108;6.100;2023-04-06T06:16:58;2.50;99.90
55642;DHT22;41509;53.108;6.100;2023-04-06T06:19:23;2.60;99.90
55642;DHT22;41509;53.108;6.100;2023-04-06T06:21:49;2.60;99.90
55642;DHT22;41509;53.108;6.100;2023-04-06T06:24:14;2.70;99.90
55642;DHT22;41509;53.108;6.100;2023-04-06T06:26:40;2.80;99.90
55642;DHT22;41509;53.108;6.100;2023-04-06T06:29:06;2.90;99.90
55642;DHT22;41509;53.108;6.100;2023-04-06T06:31:32;2.90;99.90
55642;DHT22;41509;53.108;6.100;2023-04-06T06:33:58;3.00;99.90
55642;DHT22;41509;53.108;6.100;2023-04-06T06:36:24;3.00;99.90
55642;DHT22;41509;53.108;6.100;2023-04-06T06:38:50;3.00;99.90
55642;DHT22;41509;53.108;6.100;2023-04-06T06:41:19;3.10;99.90
55642;DHT22;41509;53.108;6.100;2023-04-06T06:43:50;3.20;99.90
55642;DHT22;41509;53.108;6.100;2023-04-06T06:46:15;3.20;99.90
55642;DHT22;41509;53.108;6.100;2023-04-06T06:48:41;3.20;99.90
55642;DHT22;41509;53.108;6.100;2023-04-06T06:51:06;3.30;99.90
55642;DHT22;41509;53.108;6.100;2023-04-06T06:53:32;3.40;99.90
55642;DHT22;41509;53.108;6.100;2023-04-06T06:55:58;3.50;99.90
55642;DHT22;41509;53.108;6.100;2023-04-06T06:58:23;3.60;99.90
55642;DHT22;41509;53.108;6.100;2023-04-06T07:00:49;3.70;99.90
55642;DHT22;41509;53.108;6.100;2023-04-06T07:03:14;3.90;99.90
55642;DHT22;41509;53.108;6.100;2023-04-06T07:05:46;3.90;99.90
55642;DHT22;41509;53.108;6.100;2023-04-06T07:08:18;4.00;99.90
55642;DHT22;41509;53.108;6.100;2023-04-06T07:10:44;4.10;99.90
55642;DHT22;41509;53.108;6.100;2023-04-06T07:13:09;4.10;99.90
55642;DHT22;41509;53.108;6.100;2023-04-06T07:15:35;4.20;99.90
55642;DHT22;41509;53.108;6.100;2023-04-06T07:18:00;4.30;99.90
55642;DHT22;41509;53.108;6.100;2023-04-06T07:20:26;4.50;99.90
55642;DHT22;41509;53.108;6.100;2023-04-06T07:22:53;4.60;99.90
55642;DHT22;41509;53.108;6.100;2023-04-06T07:25:19;4.70;99.90
55642;DHT22;41509;53.108;6.100;2023-04-06T07:27:44;4.90;99.90
55642;DHT22;41509;53.108;6.100;2023-04-06T07:30:11;5.00;99.90
55642;DHT22;41509;53.108;6.100;2023-04-06T07:32:36;5.20;99.90
55642;DHT22;41509;53.108;6.100;2023-04-06T07:35:02;5.40;99.90
55642;DHT22;41509;53.108;6.100;2023-04-06T07:37:28;5.50;99.90
55642;DHT22;41509;53.108;6.100;2023-04-06T07:39:54;5.70;99.90
55642;DHT22;41509;53.108;6.100;2023-04-06T07:42:20;5.90;99.90
55642;DHT22;41509;53.108;6.100;2023-04-06T07:44:45;6.10;99.90
55642;DHT22;41509;53.108;6.100;2023-04-06T07:47:11;6.30;99.90
55642;DHT22;41509;53.108;6.100;2023-04-06T07:49:36;6.50;99.90
55642;DHT22;41509;53.108;6.100;2023-04-06T07:52:02;6.70;99.90
55642;DHT22;41509;53.108;6.100;2023-04-06T07:54:28;6.80;99.90
55642;DHT22;41509;53.108;6.100;2023-04-06T07:56:54;7.00;99.90
55642;DHT22;41509;53.108;6.100;2023-04-06T07:59:19;7.20;99.90
55642;DHT22;41509;53.108;6.100;2023-04-06T08:01:45;7.40;99.90
55642;DHT22;41509;53.108;6.100;2023-04-06T08:04:11;7.60;99.90
55642;DHT22;41509;53.108;6.100;2023-04-06T08:06:36;7.60;99.90
55642;DHT22;41509;53.108;6.100;2023-04-06T08:09:02;7.80;99.90
55642;DHT22;41509;53.108;6.100;2023-04-06T08:11:28;7.80;99.90
55642;DHT22;41509;53.108;6.100;2023-04-06T08:13:54;7.90;99.90
55642;DHT22;41509;53.108;6.100;2023-04-06T08:16:22;8.00;99.90
55642;DHT22;41509;53.108;6.100;2023-04-06T08:18:47;8.00;99.80
55642;DHT22;41509;53.108;6.100;2023-04-06T08:21:13;8.10;99.90
55642;DHT22;41509;53.108;6.100;2023-04-06T08:23:38;8.10;99.90
55642;DHT22;41509;53.108;6.100;2023-04-06T08:26:04;8.30;99.50
55642;DHT22;41509;53.108;6.100;2023-04-06T08:28:30;8.30;99.00
55642;DHT22;41509;53.108;6.100;2023-04-06T08:30:56;8.30;98.80
55642;DHT22;41509;53.108;6.100;2023-04-06T08:33:21;8.40;98.50
55642;DHT22;41509;53.108;6.100;2023-04-06T08:35:47;8.50;98.20
55642;DHT22;41509;53.108;6.100;2023-04-06T08:38:13;8.60;98.20
55642;DHT22;41509;53.108;6.100;2023-04-06T08:40:39;8.70;97.90
55642;DHT22;41509;53.108;6.100;2023-04-06T08:43:09;9.10;97.60
55642;DHT22;41509;53.108;6.100;2023-04-06T08:45:37;9.20;95.30
55642;DHT22;41509;53.108;6.100;2023-04-06T08:48:04;9.50;95.80
55642;DHT22;41509;53.108;6.100;2023-04-06T08:50:32;9.60;95.30
55642;DHT22;41509;53.108;6.100;2023-04-06T08:52:59;9.70;93.50
55642;DHT22;41509;53.108;6.100;2023-04-06T08:55:27;9.80;93.10
55642;DHT22;41509;53.108;6.100;2023-04-06T08:57:52;9.80;93.00
55642;DHT22;41509;53.108;6.100;2023-04-06T09:00:20;9.90;92.20
55642;DHT22;41509;53.108;6.100;2023-04-06T09:02:46;9.80;91.90
55642;DHT22;41509;53.108;6.100;2023-04-06T09:05:12;9.90;91.50
55642;DHT22;41509;53.108;6.100;2023-04-06T09:07:38;9.90;90.00
55642;DHT22;41509;53.108;6.100;2023-04-06T09:10:05;10.00;91.10
55642;DHT22;41509;53.108;6.100;2023-04-06T09:12:31;10.00;90.70
55642;DHT22;41509;53.108;6.100;2023-04-06T09:14:58;10.10;90.80
55642;DHT22;41509;53.108;6.100;2023-04-06T09:17:25;10.20;90.60
55642;DHT22;41509;53.108;6.100;2023-04-06T09:19:51;10.20;88.80
55642;DHT22;41509;53.108;6.100;2023-04-06T09:22:17;10.30;89.80
55642;DHT22;41509;53.108;6.100;2023-04-06T09:24:45;10.40;90.30
55642;DHT22;41509;53.108;6.100;2023-04-06T09:27:11;10.40;90.20
55642;DHT22;41509;53.108;6.100;2023-04-06T09:29:37;10.50;89.30
55642;DHT22;41509;53.108;6.100;2023-04-06T09:32:04;10.70;89.20
55642;DHT22;41509;53.108;6.100;2023-04-06T09:34:30;10.80;88.50
55642;DHT22;41509;53.108;6.100;2023-04-06T09:36:56;10.90;87.00
55642;DHT22;41509;53.108;6.100;2023-04-06T09:39:21;11.10;87.40
55642;DHT22;41509;53.108;6.100;2023-04-06T09:41:52;11.20;86.80
55642;DHT22;41509;53.108;6.100;2023-04-06T09:44:19;11.40;85.30
55642;DHT22;41509;53.108;6.100;2023-04-06T09:46:46;11.40;83.60
55642;DHT22;41509;53.108;6.100;2023-04-06T09:49:13;11.50;83.30
55642;DHT22;41509;53.108;6.100;2023-04-06T09:52:01;11.50;82.90
55642;DHT22;41509;53.108;6.100;2023-04-06T09:54:28;11.60;82.60
55642;DHT22;41509;53.108;6.100;2023-04-06T09:57:16;11.70;80.20
55642;DHT22;41509;53.108;6.100;2023-04-06T09:59:45;11.70;79.10
55642;DHT22;41509;53.108;6.100;2023-04-06T10:02:49;11.80;80.90
55642;DHT22;41509;53.108;6.100;2023-04-06T10:07:42;12.30;81.50
55642;DHT22;41509;53.108;6.100;2023-04-06T10:10:08;12.40;80.10
55642;DHT22;41509;53.108;6.100;2023-04-06T10:12:37;12.60;79.20
55642;DHT22;41509;53.108;6.100;2023-04-06T10:15:03;12.80;78.50
55642;DHT22;41509;53.108;6.100;2023-04-06T10:17:29;12.80;76.80
55642;DHT22;41509;53.108;6.100;2023-04-06T10:20:16;12.90;75.90
55642;DHT22;41509;53.108;6.100;2023-04-06T10:22:49;12.90;74.80
55642;DHT22;41509;53.108;6.100;2023-04-06T10:25:32;12.90;74.30
55642;DHT22;41509;53.108;6.100;2023-04-06T10:28:09;12.90;72.00
55642;DHT22;41509;53.108;6.100;2023-04-06T10:30:42;13.00;73.40
55642;DHT22;41509;53.108;6.100;2023-04-06T10:33:18;13.00;73.00
55642;DHT22;41509;53.108;6.100;2023-04-06T10:35:44;13.10;71.30
55642;DHT22;41509;53.108;6.100;2023-04-06T10:38:11;13.10;72.20
55642;DHT22;41509;53.108;6.100;2023-04-06T10:40:41;13.10;72.00
55642;DHT22;41509;53.108;6.100;2023-04-06T10:43:20;13.10;71.30
55642;DHT22;41509;53.108;6.100;2023-04-06T10:45:55;13.20;72.10
55642;DHT22;41509;53.108;6.100;2023-04-06T10:48:21;13.10;69.60
55642;DHT22;41509;53.108;6.100;2023-04-06T10:50:48;13.10;70.30
55642;DHT22;41509;53.108;6.100;2023-04-06T10:53:25;13.10;70.20
55642;DHT22;41509;53.108;6.100;2023-04-06T10:55:52;13.10;69.20
55642;DHT22;41509;53.108;6.100;2023-04-06T10:58:18;13.10;69.40
55642;DHT22;41509;53.108;6.100;2023-04-06T11:00:46;13.00;68.80
55642;DHT22;41509;53.108;6.100;2023-04-06T11:03:12;12.90;68.70
55642;DHT22;41509;53.108;6.100;2023-04-06T11:05:37;12.90;68.90
55642;DHT22;41509;53.108;6.100;2023-04-06T11:08:03;12.90;68.50
55642;DHT22;41509;53.108;6.100;2023-04-06T11:10:29;12.80;69.10
55642;DHT22;41509;53.108;6.100;2023-04-06T11:12:56;12.80;69.40
55642;DHT22;41509;53.108;6.100;2023-04-06T11:15:22;12.90;68.50
55642;DHT22;41509;53.108;6.100;2023-04-06T11:17:48;12.90;68.80
55642;DHT22;41509;53.108;6.100;2023-04-06T11:20:15;13.00;69.00
55642;DHT22;41509;53.108;6.100;2023-04-06T11:22:51;13.00;68.60
55642;DHT22;41509;53.108;6.100;2023-04-06T11:25:17;13.10;67.40
55642;DHT22;41509;53.108;6.100;2023-04-06T11:27:44;13.00;67.60
55642;DHT22;41509;53.108;6.100;2023-04-06T11:30:10;13.00;67.60
55642;DHT22;41509;53.108;6.100;2023-04-06T11:32:43;13.10;67.40
55642;DHT22;41509;53.108;6.100;2023-04-06T11:35:23;13.00;67.20
55642;DHT22;41509;53.108;6.100;2023-04-06T11:37:51;13.10;68.00
55642;DHT22;41509;53.108;6.100;2023-04-06T11:40:21;13.20;68.60
55642;DHT22;41509;53.108;6.100;2023-04-06T11:42:55;13.40;68.20
55642;DHT22;41509;53.108;6.100;2023-04-06T11:45:21;13.60;67.40
55642;DHT22;41509;53.108;6.100;2023-04-06T11:47:55;13.50;67.40
55642;DHT22;41509;53.108;6.100;2023-04-06T11:50:22;13.60;67.70
55642;DHT22;41509;53.108;6.100;2023-04-06T11:52:58;13.70;67.90
55642;DHT22;41509;53.108;6.100;2023-04-06T11:55:25;13.70;66.70
55642;DHT22;41509;53.108;6.100;2023-04-06T11:57:50;13.60;66.60
55642;DHT22;41509;53.108;6.100;2023-04-06T12:00:17;13.70;65.80
55642;DHT22;41509;53.108;6.100;2023-04-06T12:02:46;13.50;65.70
55642;DHT22;41509;53.108;6.100;2023-04-06T12:05:18;13.50;66.00
55642;DHT22;41509;53.108;6.100;2023-04-06T12:07:46;13.50;66.30
55642;DHT22;41509;53.108;6.100;2023-04-06T12:10:28;13.40;66.10
55642;DHT22;41509;53.108;6.100;2023-04-06T12:12:57;13.50;66.80
55642;DHT22;41509;53.108;6.100;2023-04-06T12:15:23;13.70;67.00
55642;DHT22;41509;53.108;6.100;2023-04-06T12:17:52;13.60;66.60
55642;DHT22;41509;53.108;6.100;2023-04-06T12:20:20;13.70;66.70
55642;DHT22;41509;53.108;6.100;2023-04-06T12:22:49;13.80;66.80
55642;DHT22;41509;53.108;6.100;2023-04-06T12:25:15;13.90;66.80
55642;DHT22;41509;53.108;6.100;2023-04-06T12:27:44;13.70;66.60
55642;DHT22;41509;53.108;6.100;2023-04-06T12:30:10;13.70;66.50
55642;DHT22;41509;53.108;6.100;2023-04-06T12:32:36;13.70;66.80
55642;DHT22;41509;53.108;6.100;2023-04-06T12:35:01;13.70;67.10
55642;DHT22;41509;53.108;6.100;2023-04-06T12:37:29;13.70;67.50
55642;DHT22;41509;53.108;6.100;2023-04-06T12:39:55;13.60;67.00
55642;DHT22;41509;53.108;6.100;2023-04-06T12:42:21;13.70;67.50
55642;DHT22;41509;53.108;6.100;2023-04-06T12:44:52;13.70;67.60
55642;DHT22;41509;53.108;6.100;2023-04-06T12:47:18;13.70;67.80
55642;DHT22;41509;53.108;6.100;2023-04-06T12:49:50;13.70;67.90
55642;DHT22;41509;53.108;6.100;2023-04-06T12:52:16;13.60;68.00
55642;DHT22;41509;53.108;6.100;2023-04-06T12:54:42;13.50;67.90
55642;DHT22;41509;53.108;6.100;2023-04-06T12:57:14;13.40;68.60
55642;DHT22;41509;53.108;6.100;2023-04-06T12:59:49;13.30;68.70
55642;DHT22;41509;53.108;6.100;2023-04-06T13:02:18;13.30;68.70
55642;DHT22;41509;53.108;6.100;2023-04-06T13:04:45;13.20;68.70
55642;DHT22;41509;53.108;6.100;2023-04-06T13:07:14;13.10;69.00
55642;DHT22;41509;53.108;6.100;2023-04-06T13:09:40;13.00;69.00
55642;DHT22;41509;53.108;6.100;2023-04-06T13:12:11;13.00;69.60
55642;DHT22;41509;53.108;6.100;2023-04-06T13:14:46;13.00;69.80
55642;DHT22;41509;53.108;6.100;2023-04-06T13:17:17;13.00;70.10
55642;DHT22;41509;53.108;6.100;2023-04-06T13:19:43;13.10;70.30
55642;DHT22;41509;53.108;6.100;2023-04-06T13:22:14;13.00;70.90
55642;DHT22;41509;53.108;6.100;2023-04-06T13:25:10;12.90;71.00
55642;DHT22;41509;53.108;6.100;2023-04-06T13:27:36;13.00;71.70
55642;DHT22;41509;53.108;6.100;2023-04-06T13:30:05;13.10;71.90
55642;DHT22;41509;53.108;6.100;2023-04-06T13:32:36;13.00;72.40
55642;DHT22;41509;53.108;6.100;2023-04-06T13:35:01;12.90;74.60
55642;DHT22;41509;53.108;6.100;2023-04-06T13:37:29;12.80;75.90
55642;DHT22;41509;53.108;6.100;2023-04-06T13:39:54;12.80;76.10
55642;DHT22;41509;53.108;6.100;2023-04-06T13:42:22;12.80;76.90
55642;DHT22;41509;53.108;6.100;2023-04-06T13:44:48;12.80;77.60
55642;DHT22;41509;53.108;6.100;2023-04-06T13:47:16;12.70;77.90
55642;DHT22;41509;53.108;6.100;2023-04-06T13:53:44;12.60;81.40
55642;DHT22;41509;53.108;6.100;2023-04-06T13:56:09;12.40;81.10
55642;DHT22;41509;53.108;6.100;2023-04-06T13:58:35;12.20;81.90
55642;DHT22;41509;53.108;6.100;2023-04-06T14:01:08;12.10;85.00
55642;DHT22;41509;53.108;6.100;2023-04-06T14:03:35;11.90;87.60
55642;DHT22;41509;53.108;6.100;2023-04-06T14:06:01;11.70;90.40
55642;DHT22;41509;53.108;6.100;2023-04-06T14:08:26;11.60;94.40
55642;DHT22;41509;53.108;6.100;2023-04-06T14:10:52;11.50;95.10
55642;DHT22;41509;53.108;6.100;2023-04-06T14:13:19;11.30;95.70
55642;DHT22;41509;53.108;6.100;2023-04-06T14:15:45;11.10;96.00
55642;DHT22;41509;53.108;6.100;2023-04-06T14:18:10;11.00;97.20
55642;DHT22;41509;53.108;6.100;2023-04-06T14:20:36;10.90;98.40
55642;DHT22;41509;53.108;6.100;2023-04-06T14:23:03;10.90;99.70
55642;DHT22;41509;53.108;6.100;2023-04-06T14:25:29;10.80;99.90
55642;DHT22;41509;53.108;6.100;2023-04-06T14:27:57;10.80;99.90
55642;DHT22;41509;53.108;6.100;2023-04-06T14:30:22;10.60;99.90
55642;DHT22;41509;53.108;6.100;2023-04-06T14:32:48;10.60;99.90
55642;DHT22;41509;53.108;6.100;2023-04-06T14:35:14;10.50;99.90
55642;DHT22;41509;53.108;6.100;2023-04-06T14:37:39;10.40;99.90
55642;DHT22;41509;53.108;6.100;2023-04-06T14:40:05;10.30;99.90
55642;DHT22;41509;53.108;6.100;2023-04-06T14:42:31;10.30;99.90
55642;DHT22;41509;53.108;6.100;2023-04-06T14:44:57;10.20;99.90
55642;DHT22;41509;53.108;6.100;2023-04-06T14:47:23;10.20;99.90
55642;DHT22;41509;53.108;6.100;2023-04-06T14:49:51;10.10;99.90
55642;DHT22;41509;53.108;6.100;2023-04-06T14:52:17;10.00;99.90
55642;DHT22;41509;53.108;6.100;2023-04-06T14:54:42;10.00;99.90
55642;DHT22;41509;53.108;6.100;2023-04-06T14:57:08;10.00;99.90
55642;DHT22;41509;53.108;6.100;2023-04-06T14:59:34;10.00;99.90
55642;DHT22;41509;53.108;6.100;2023-04-06T15:02:02;10.00;99.90
55642;DHT22;41509;53.108;6.100;2023-04-06T15:04:28;10.00;99.90
55642;DHT22;41509;53.108;6.100;2023-04-06T15:06:54;9.90;99.90
55642;DHT22;41509;53.108;6.100;2023-04-06T15:09:19;9.80;99.90
55642;DHT22;41509;53.108;6.100;2023-04-06T15:11:45;9.80;99.90
55642;DHT22;41509;53.108;6.100;2023-04-06T15:14:11;9.80;99.90
55642;DHT22;41509;53.108;6.100;2023-04-06T15:16:36;9.80;99.90
55642;DHT22;41509;53.108;6.100;2023-04-06T15:19:02;9.70;99.90
55642;DHT22;41509;53.108;6.100;2023-04-06T15:21:28;9.70;99.90
55642;DHT22;41509;53.108;6.100;2023-04-06T15:23:53;9.70;99.90
55642;DHT22;41509;53.108;6.100;2023-04-06T15:26:20;9.60;99.90
55642;DHT22;41509;53.108;6.100;2023-04-06T15:28:45;9.50;99.90
55642;DHT22;41509;53.108;6.100;2023-04-06T15:31:19;9.50;99.90
55642;DHT22;41509;53.108;6.100;2023-04-06T15:33:45;9.50;99.90
55642;DHT22;41509;53.108;6.100;2023-04-06T15:36:22;9.40;99.90
55642;DHT22;41509;53.108;6.100;2023-04-06T15:38:49;9.40;99.90
55642;DHT22;41509;53.108;6.100;2023-04-06T15:41:16;9.30;99.90
55642;DHT22;41509;53.108;6.100;2023-04-06T15:43:42;9.20;99.90
55642;DHT22;41509;53.108;6.100;2023-04-06T15:46:08;9.20;99.90